sensor_id;sensor_type;location;lat;lon;timestamp;temperature;humidity
55365;DHT22;41245;45.384;20.390;2022-09-09T00:04:30;614.40;128.00
55365;DHT22;41245;45.384;20.390;2022-09-09T00:07:00;614.40;128.00
55365;DHT22;41245;45.384;20.390;2022-09-09T00:09:29;589.70;128.00
55365;DHT22;41245;45.384;20.390;2022-09-09T00:14:58;589.70;128.00
55365;DHT22;41245;45.384;20.390;2022-09-09T00:20:24;589.70;128.00
55365;DHT22;41245;45.384;20.390;2022-09-09T00:23:03;589.70;128.00
55365;DHT22;41245;45.384;20.390;2022-09-09T00:28:25;589.70;128.00
55365;DHT22;41245;45.384;20.390;2022-09-09T00:30:52;589.70;128.00
55365;DHT22;41245;45.384;20.390;2022-09-09T00:33:22;589.70;128.00
55365;DHT22;41245;45.384;20.390;2022-09-09T00:35:51;589.60;128.00
55365;DHT22;41245;45.384;20.390;2022-09-09T00:38:47;589.60;128.00
55365;DHT22;41245;45.384;20.390;2022-09-09T00:41:18;589.60;128.00
55365;DHT22;41245;45.384;20.390;2022-09-09T00:44:32;589.50;128.00
55365;DHT22;41245;45.384;20.390;2022-09-09T00:46:56;589.40;128.00
55365;DHT22;41245;45.384;20.390;2022-09-09T00:52:18;589.40;128.00
55365;DHT22;41245;45.384;20.390;2022-09-09T00:57:29;589.40;128.00
55365;DHT22;41245;45.384;20.390;2022-09-09T00:59:58;589.40;128.00
55365;DHT22;41245;45.384;20.390;2022-09-09T01:05:08;589.30;128.00
55365;DHT22;41245;45.384;20.390;2022-09-09T01:07:36;589.30;128.00
55365;DHT22;41245;45.384;20.390;2022-09-09T01:10:08;589.30;128.00
55365;DHT22;41245;45.384;20.390;2022-09-09T01:12:42;589.30;128.00
55365;DHT22;41245;45.384;20.390;2022-09-09T01:15:14;589.40;128.00
55365;DHT22;41245;45.384;20.390;2022-09-09T01:20:17;589.40;128.00
55365;DHT22;41245;45.384;20.390;2022-09-09T01:28:30;589.30;128.00
55365;DHT22;41245;45.384;20.390;2022-09-09T01:30:57;589.30;128.00
55365;DHT22;41245;45.384;20.390;2022-09-09T01:33:24;589.40;128.00
55365;DHT22;41245;45.384;20.390;2022-09-09T01:36:03;589.40;128.00
55365;DHT22;41245;45.384;20.390;2022-09-09T01:38:32;589.30;128.00
55365;DHT22;41245;45.384;20.390;2022-09-09T01:40:59;589.30;128.00
55365;DHT22;41245;45.384;20.390;2022-09-09T01:43:26;589.40;128.00
55365;DHT22;41245;45.384;20.390;2022-09-09T01:45:56;589.30;128.00
55365;DHT22;41245;45.384;20.390;2022-09-09T01:48:25;589.30;128.00
55365;DHT22;41245;45.384;20.390;2022-09-09T01:50:51;589.30;128.00
55365;DHT22;41245;45.384;20.390;2022-09-09T01:53:18;589.30;128.00
55365;DHT22;41245;45.384;20.390;2022-09-09T01:55:56;589.30;128.00
55365;DHT22;41245;45.384;20.390;2022-09-09T01:58:45;589.40;128.00
55365;DHT22;41245;45.384;20.390;2022-09-09T02:03:57;589.30;128.00
55365;DHT22;41245;45.384;20.390;2022-09-09T02:08:50;589.30;128.00
55365;DHT22;41245;45.384;20.390;2022-09-09T02:11:26;589.30;128.00
55365;DHT22;41245;45.384;20.390;2022-09-09T02:13:57;589.30;128.00
55365;DHT22;41245;45.384;20.390;2022-09-09T02:19:17;589.20;128.00
55365;DHT22;41245;45.384;20.390;2022-09-09T02:21:50;589.20;128.00
55365;DHT22;41245;45.384;20.390;2022-09-09T02:24:16;589.20;128.00
55365;DHT22;41245;45.384;20.390;2022-09-09T02:26:45;589.20;128.00
55365;DHT22;41245;45.384;20.390;2022-09-09T02:29:16;589.30;128.00
55365;DHT22;41245;45.384;20.390;2022-09-09T02:31:44;589.20;128.00
55365;DHT22;41245;45.384;20.390;2022-09-09T02:34:12;589.10;128.00
55365;DHT22;41245;45.384;20.390;2022-09-09T02:36:40;589.20;128.00
55365;DHT22;41245;45.384;20.390;2022-09-09T02:39:09;589.20;128.00
55365;DHT22;41245;45.384;20.390;2022-09-09T02:41:38;589.20;128.00
55365;DHT22;41245;45.384;20.390;2022-09-09T02:44:15;589.20;128.00
55365;DHT22;41245;45.384;20.390;2022-09-09T02:52:55;589.20;128.00
55365;DHT22;41245;45.384;20.390;2022-09-09T02:58:00;589.20;128.00
55365;DHT22;41245;45.384;20.390;2022-09-09T03:00:28;589.10;128.00
55365;DHT22;41245;45.384;20.390;2022-09-09T03:02:54;589.10;128.00
55365;DHT22;41245;45.384;20.390;2022-09-09T03:05:21;589.10;128.00
55365;DHT22;41245;45.384;20.390;2022-09-09T03:07:47;589.10;128.00
55365;DHT22;41245;45.384;20.390;2022-09-09T03:10:12;589.00;128.00
55365;DHT22;41245;45.384;20.390;2022-09-09T03:12:39;589.00;128.00
55365;DHT22;41245;45.384;20.390;2022-09-09T03:15:05;589.00;128.00
55365;DHT22;41245;45.384;20.390;2022-09-09T03:17:31;589.00;128.00
55365;DHT22;41245;45.384;20.390;2022-09-09T03:19:57;589.00;128.00
55365;DHT22;41245;45.384;20.390;2022-09-09T03:22:24;589.00;128.00
55365;DHT22;41245;45.384;20.390;2022-09-09T03:24:51;589.00;128.00
55365;DHT22;41245;45.384;20.390;2022-09-09T03:27:17;589.00;128.00
55365;DHT22;41245;45.384;20.390;2022-09-09T03:29:45;589.30;128.00
55365;DHT22;41245;45.384;20.390;2022-09-09T03:32:11;564.10;128.00
55365;DHT22;41245;45.384;20.390;2022-09-09T03:34:37;564.10;128.00
55365;DHT22;41245;45.384;20.390;2022-09-09T03:37:06;564.10;128.00
55365;DHT22;41245;45.384;20.390;2022-09-09T03:39:32;564.00;128.00
55365;DHT22;41245;45.384;20.390;2022-09-09T03:41:57;564.00;128.00
55365;DHT22;41245;45.384;20.390;2022-09-09T03:44:23;564.00;128.00
55365;DHT22;41245;45.384;20.390;2022-09-09T03:46:49;564.00;128.00
55365;DHT22;41245;45.384;20.390;2022-09-09T03:49:14;563.60;128.00
55365;DHT22;41245;45.384;20.390;2022-09-09T03:51:41;564.00;128.00
55365;DHT22;41245;45.384;20.390;2022-09-09T03:54:07;564.00;128.00
55365;DHT22;41245;45.384;20.390;2022-09-09T03:56:36;564.00;128.00
55365;DHT22;41245;45.384;20.390;2022-09-09T03:59:02;564.00;128.00
55365;DHT22;41245;45.384;20.390;2022-09-09T04:01:29;564.00;128.00
55365;DHT22;41245;45.384;20.390;2022-09-09T04:03:54;563.90;128.00
55365;DHT22;41245;45.384;20.390;2022-09-09T04:06:23;564.00;128.00
55365;DHT22;41245;45.384;20.390;2022-09-09T04:08:49;564.00;128.00
55365;DHT22;41245;45.384;20.390;2022-09-09T04:11:15;564.00;128.00
55365;DHT22;41245;45.384;20.390;2022-09-09T04:13:41;564.00;128.00
55365;DHT22;41245;45.384;20.390;2022-09-09T04:16:09;564.00;128.00
55365;DHT22;41245;45.384;20.390;2022-09-09T04:18:35;564.00;128.00
55365;DHT22;41245;45.384;20.390;2022-09-09T04:21:01;564.00;128.00
55365;DHT22;41245;45.384;20.390;2022-09-09T04:23:29;564.00;128.00
55365;DHT22;41245;45.384;20.390;2022-09-09T04:25:55;564.00;128.00
55365;DHT22;41245;45.384;20.390;2022-09-09T04:28:24;564.00;128.00
55365;DHT22;41245;45.384;20.390;2022-09-09T04:30:50;564.00;128.00
55365;DHT22;41245;45.384;20.390;2022-09-09T04:33:16;564.00;128.00
55365;DHT22;41245;45.384;20.390;2022-09-09T04:35:46;564.00;128.00
55365;DHT22;41245;45.384;20.390;2022-09-09T04:38:13;564.10;128.00
55365;DHT22;41245;45.384;20.390;2022-09-09T04:40:48;564.10;128.00
55365;DHT22;41245;45.384;20.390;2022-09-09T04:43:15;564.10;128.00
55365;DHT22;41245;45.384;20.390;2022-09-09T04:45:41;564.10;128.00
55365;DHT22;41245;45.384;20.390;2022-09-09T04:48:07;564.10;128.00
55365;DHT22;41245;45.384;20.390;2022-09-09T04:50:33;588.80;128.00
55365;DHT22;41245;45.384;20.390;2022-09-09T04:53:05;588.80;128.00
55365;DHT22;41245;45.384;20.390;2022-09-09T04:55:31;564.10;128.00
55365;DHT22;41245;45.384;20.390;2022-09-09T04:57:57;564.10;128.00
55365;DHT22;41245;45.384;20.390;2022-09-09T05:00:24;588.80;128.00
55365;DHT22;41245;45.384;20.390;2022-09-09T05:02:50;588.80;128.00
55365;DHT22;41245;45.384;20.390;2022-09-09T05:05:16;588.80;128.00
55365;DHT22;41245;45.384;20.390;2022-09-09T05:07:42;588.80;128.00
55365;DHT22;41245;45.384;20.390;2022-09-09T05:10:09;588.80;128.00
55365;DHT22;41245;45.384;20.390;2022-09-09T05:12:35;588.80;128.00
55365;DHT22;41245;45.384;20.390;2022-09-09T05:15:01;588.90;128.00
55365;DHT22;41245;45.384;20.390;2022-09-09T05:17:27;588.80;128.00
55365;DHT22;41245;45.384;20.390;2022-09-09T05:19:53;588.90;128.00
55365;DHT22;41245;45.384;20.390;2022-09-09T05:22:21;589.00;128.00
55365;DHT22;41245;45.384;20.390;2022-09-09T05:24:49;589.00;128.00
55365;DHT22;41245;45.384;20.390;2022-09-09T05:27:17;589.00;128.00
55365;DHT22;41245;45.384;20.390;2022-09-09T05:29:45;589.10;128.00
55365;DHT22;41245;45.384;20.390;2022-09-09T05:32:11;589.10;128.00
55365;DHT22;41245;45.384;20.390;2022-09-09T05:34:37;589.20;128.00
55365;DHT22;41245;45.384;20.390;2022-09-09T05:37:05;589.20;128.00
55365;DHT22;41245;45.384;20.390;2022-09-09T05:39:32;589.30;128.00
55365;DHT22;41245;45.384;20.390;2022-09-09T05:41:58;589.20;128.00
55365;DHT22;41245;45.384;20.390;2022-09-09T05:44:24;589.20;128.00
55365;DHT22;41245;45.384;20.390;2022-09-09T05:46:53;589.30;128.00
55365;DHT22;41245;45.384;20.390;2022-09-09T05:49:19;589.30;128.00
55365;DHT22;41245;45.384;20.390;2022-09-09T05:51:45;589.30;128.00
55365;DHT22;41245;45.384;20.390;2022-09-09T05:54:11;589.40;128.00
55365;DHT22;41245;45.384;20.390;2022-09-09T05:56:40;589.30;128.00
55365;DHT22;41245;45.384;20.390;2022-09-09T05:59:06;589.40;128.00
55365;DHT22;41245;45.384;20.390;2022-09-09T06:01:34;589.40;128.00
55365;DHT22;41245;45.384;20.390;2022-09-09T06:04:00;589.50;128.00
55365;DHT22;41245;45.384;20.390;2022-09-09T06:06:30;589.60;128.00
55365;DHT22;41245;45.384;20.390;2022-09-09T06:08:57;589.60;128.00
55365;DHT22;41245;45.384;20.390;2022-09-09T06:11:27;589.60;128.00
55365;DHT22;41245;45.384;20.390;2022-09-09T06:13:56;589.60;128.00
55365;DHT22;41245;45.384;20.390;2022-09-09T06:16:24;589.60;128.00
55365;DHT22;41245;45.384;20.390;2022-09-09T06:18:51;589.60;128.00
55365;DHT22;41245;45.384;20.390;2022-09-09T06:23:46;589.50;128.00
55365;DHT22;41245;45.384;20.390;2022-09-09T06:28:38;589.50;128.00
55365;DHT22;41245;45.384;20.390;2022-09-09T06:31:06;589.50;128.00
55365;DHT22;41245;45.384;20.390;2022-09-09T06:33:37;589.50;128.00
55365;DHT22;41245;45.384;20.390;2022-09-09T06:36:07;589.50;128.00
55365;DHT22;41245;45.384;20.390;2022-09-09T06:38:35;589.60;128.00
55365;DHT22;41245;45.384;20.390;2022-09-09T06:41:01;589.60;128.00
55365;DHT22;41245;45.384;20.390;2022-09-09T06:43:27;589.70;128.00
55365;DHT22;41245;45.384;20.390;2022-09-09T06:46:07;614.50;128.00
55365;DHT22;41245;45.384;20.390;2022-09-09T06:48:34;614.60;128.00
55365;DHT22;41245;45.384;20.390;2022-09-09T06:51:05;614.70;128.00
55365;DHT22;41245;45.384;20.390;2022-09-09T06:53:32;614.90;128.00
55365;DHT22;41245;45.384;20.390;2022-09-09T06:56:24;614.80;128.00
55365;DHT22;41245;45.384;20.390;2022-09-09T06:58:51;615.00;128.00
55365;DHT22;41245;45.384;20.390;2022-09-09T07:01:23;615.00;128.00
55365;DHT22;41245;45.384;20.390;2022-09-09T07:03:51;615.10;128.00
55365;DHT22;41245;45.384;20.390;2022-09-09T07:06:22;615.20;128.00
55365;DHT22;41245;45.384;20.390;2022-09-09T07:08:53;615.30;128.00
55365;DHT22;41245;45.384;20.390;2022-09-09T07:11:21;640.00;128.00
55365;DHT22;41245;45.384;20.390;2022-09-09T07:13:47;615.30;128.00
55365;DHT22;41245;45.384;20.390;2022-09-09T07:16:15;640.30;128.00
55365;DHT22;41245;45.384;20.390;2022-09-09T07:18:42;615.30;128.00
55365;DHT22;41245;45.384;20.390;2022-09-09T07:21:10;615.20;128.00
55365;DHT22;41245;45.384;20.390;2022-09-09T07:23:38;640.00;128.00
55365;DHT22;41245;45.384;20.390;2022-09-09T07:26:12;640.10;128.00
55365;DHT22;41245;45.384;20.390;2022-09-09T07:28:39;640.30;128.00
55365;DHT22;41245;45.384;20.390;2022-09-09T07:31:06;640.50;128.00
55365;DHT22;41245;45.384;20.390;2022-09-09T07:33:34;640.60;128.00
55365;DHT22;41245;45.384;20.390;2022-09-09T07:36:27;640.80;128.00
55365;DHT22;41245;45.384;20.390;2022-09-09T07:38:56;640.80;128.00
55365;DHT22;41245;45.384;20.390;2022-09-09T07:41:28;640.70;128.00
55365;DHT22;41245;45.384;20.390;2022-09-09T07:43:54;640.90;128.00
55365;DHT22;41245;45.384;20.390;2022-09-09T07:46:21;640.80;128.00
55365;DHT22;41245;45.384;20.390;2022-09-09T07:48:50;665.60;153.60
55365;DHT22;41245;45.384;20.390;2022-09-09T07:51:18;665.60;153.60
55365;DHT22;41245;45.384;20.390;2022-09-09T07:53:45;665.60;153.60
55365;DHT22;41245;45.384;20.390;2022-09-09T07:56:14;665.60;153.60
55365;DHT22;41245;45.384;20.390;2022-09-09T07:58:44;665.80;153.60
55365;DHT22;41245;45.384;20.390;2022-09-09T08:01:19;665.70;153.60
55365;DHT22;41245;45.384;20.390;2022-09-09T08:03:46;665.60;153.60
55365;DHT22;41245;45.384;20.390;2022-09-09T08:06:13;665.70;153.60
55365;DHT22;41245;45.384;20.390;2022-09-09T08:08:39;665.60;153.60
55365;DHT22;41245;45.384;20.390;2022-09-09T08:11:14;665.60;153.60
55365;DHT22;41245;45.384;20.390;2022-09-09T08:13:41;665.70;153.60
55365;DHT22;41245;45.384;20.390;2022-09-09T08:16:11;665.60;153.60
55365;DHT22;41245;45.384;20.390;2022-09-09T08:18:38;665.60;153.60
55365;DHT22;41245;45.384;20.390;2022-09-09T08:21:09;640.80;128.00
55365;DHT22;41245;45.384;20.390;2022-09-09T08:23:40;640.70;128.00
55365;DHT22;41245;45.384;20.390;2022-09-09T08:26:14;640.90;128.00
55365;DHT22;41245;45.384;20.390;2022-09-09T08:28:41;640.90;128.00
55365;DHT22;41245;45.384;20.390;2022-09-09T08:31:12;640.90;128.00
55365;DHT22;41245;45.384;20.390;2022-09-09T08:33:39;665.60;153.60
55365;DHT22;41245;45.384;20.390;2022-09-09T08:36:09;665.60;153.60
55365;DHT22;41245;45.384;20.390;2022-09-09T08:38:36;665.70;153.60
55365;DHT22;41245;45.384;20.390;2022-09-09T08:52:36;691.20;153.60
55365;DHT22;41245;45.384;20.390;2022-09-09T08:55:20;691.30;153.60
55365;DHT22;41245;45.384;20.390;2022-09-09T08:57:52;691.70;153.60
55365;DHT22;41245;45.384;20.390;2022-09-09T09:00:20;691.80;153.60
55365;DHT22;41245;45.384;20.390;2022-09-09T09:10:51;716.90;179.20
55365;DHT22;41245;45.384;20.390;2022-09-09T09:16:34;717.20;179.20
55365;DHT22;41245;45.384;20.390;2022-09-09T09:19:02;717.40;179.20
55365;DHT22;41245;45.384;20.390;2022-09-09T09:24:42;717.50;179.20
55365;DHT22;41245;45.384;20.390;2022-09-09T09:27:14;742.40;204.80
55365;DHT22;41245;45.384;20.390;2022-09-09T09:29:41;742.50;204.80
55365;DHT22;41245;45.384;20.390;2022-09-09T09:32:13;742.80;204.80
55365;DHT22;41245;45.384;20.390;2022-09-09T09:34:39;743.00;204.80
55365;DHT22;41245;45.384;20.390;2022-09-09T09:37:23;743.10;204.80
55365;DHT22;41245;45.384;20.390;2022-09-09T09:39:51;743.00;204.80
55365;DHT22;41245;45.384;20.390;2022-09-09T09:42:17;742.90;204.80
55365;DHT22;41245;45.384;20.390;2022-09-09T09:44:44;742.80;204.80
55365;DHT22;41245;45.384;20.390;2022-09-09T09:47:18;742.80;204.80
55365;DHT22;41245;45.384;20.390;2022-09-09T09:49:58;742.70;204.80
55365;DHT22;41245;45.384;20.390;2022-09-09T09:52:33;742.50;204.80
55365;DHT22;41245;45.384;20.390;2022-09-09T09:55:04;717.70;179.20
55365;DHT22;41245;45.384;20.390;2022-09-09T09:57:33;717.70;179.20
55365;DHT22;41245;45.384;20.390;2022-09-09T10:00:15;717.60;179.20
55365;DHT22;41245;45.384;20.390;2022-09-09T10:02:44;717.70;179.20
55365;DHT22;41245;45.384;20.390;2022-09-09T10:07:45;717.50;179.20
55365;DHT22;41245;45.384;20.390;2022-09-09T10:10:25;742.70;204.80
55365;DHT22;41245;45.384;20.390;2022-09-09T10:15:52;743.10;204.80
55365;DHT22;41245;45.384;20.390;2022-09-09T10:18:42;743.10;204.80
55365;DHT22;41245;45.384;20.390;2022-09-09T10:26:40;743.20;204.80
55365;DHT22;41245;45.384;20.390;2022-09-09T10:29:34;743.00;204.80
55365;DHT22;41245;45.384;20.390;2022-09-09T10:43:04;742.80;204.80
55365;DHT22;41245;45.384;20.390;2022-09-09T10:56:26;717.60;179.20
55365;DHT22;41245;45.384;20.390;2022-09-09T10:59:02;717.60;179.20
55365;DHT22;41245;45.384;20.390;2022-09-09T11:01:54;717.60;179.20
55365;DHT22;41245;45.384;20.390;2022-09-09T11:04:25;742.40;204.80
55365;DHT22;41245;45.384;20.390;2022-09-09T11:06:55;742.60;204.80
55365;DHT22;41245;45.384;20.390;2022-09-09T11:09:28;742.60;204.80
55365;DHT22;41245;45.384;20.390;2022-09-09T11:11:57;742.60;204.80
55365;DHT22;41245;45.384;20.390;2022-09-09T11:14:43;743.30;204.80
55365;DHT22;41245;45.384;20.390;2022-09-09T11:17:17;742.80;204.80
55365;DHT22;41245;45.384;20.390;2022-09-09T11:19:44;742.80;204.80
55365;DHT22;41245;45.384;20.390;2022-09-09T11:25:15;742.80;204.80
55365;DHT22;41245;45.384;20.390;2022-09-09T11:36:26;742.80;204.80
55365;DHT22;41245;45.384;20.390;2022-09-09T11:39:26;742.80;204.80
55365;DHT22;41245;45.384;20.390;2022-09-09T11:41:53;742.80;204.80
55365;DHT22;41245;45.384;20.390;2022-09-09T11:44:28;742.80;204.80
55365;DHT22;41245;45.384;20.390;2022-09-09T11:46:55;742.90;204.80
55365;DHT22;41245;45.384;20.390;2022-09-09T11:49:39;742.80;204.80
55365;DHT22;41245;45.384;20.390;2022-09-09T11:54:51;742.90;204.80
55365;DHT22;41245;45.384;20.390;2022-09-09T11:57:32;743.00;204.80
55365;DHT22;41245;45.384;20.390;2022-09-09T11:59:59;743.00;204.80
55365;DHT22;41245;45.384;20.390;2022-09-09T12:02:28;743.00;204.80
55365;DHT22;41245;45.384;20.390;2022-09-09T12:05:06;743.20;204.80
55365;DHT22;41245;45.384;20.390;2022-09-09T12:07:56;743.20;204.80
55365;DHT22;41245;45.384;20.390;2022-09-09T12:10:30;743.20;204.80
55365;DHT22;41245;45.384;20.390;2022-09-09T12:13:26;743.20;204.80
55365;DHT22;41245;45.384;20.390;2022-09-09T12:15:56;768.10;204.80
55365;DHT22;41245;45.384;20.390;2022-09-09T12:21:18;743.30;204.80
55365;DHT22;41245;45.384;20.390;2022-09-09T12:23:50;743.10;204.80
55365;DHT22;41245;45.384;20.390;2022-09-09T12:26:30;743.10;204.80
55365;DHT22;41245;45.384;20.390;2022-09-09T12:29:21;743.20;204.80
55365;DHT22;41245;45.384;20.390;2022-09-09T12:32:02;743.00;204.80
55365;DHT22;41245;45.384;20.390;2022-09-09T12:39:45;742.80;204.80
55365;DHT22;41245;45.384;20.390;2022-09-09T12:42:17;743.10;204.80
55365;DHT22;41245;45.384;20.390;2022-09-09T12:44:57;743.30;204.80
55365;DHT22;41245;45.384;20.390;2022-09-09T12:47:37;768.00;204.80
55365;DHT22;41245;45.384;20.390;2022-09-09T12:50:15;768.40;204.80
55365;DHT22;41245;45.384;20.390;2022-09-09T12:52:42;768.50;204.80
55365;DHT22;41245;45.384;20.390;2022-09-09T12:55:20;768.50;204.80
55365;DHT22;41245;45.384;20.390;2022-09-09T12:57:48;768.70;204.80
55365;DHT22;41245;45.384;20.390;2022-09-09T13:00:19;768.80;204.80
55365;DHT22;41245;45.384;20.390;2022-09-09T13:02:51;768.80;204.80
55365;DHT22;41245;45.384;20.390;2022-09-09T13:05:26;768.80;204.80
55365;DHT22;41245;45.384;20.390;2022-09-09T13:08:01;768.70;204.80
55365;DHT22;41245;45.384;20.390;2022-09-09T13:10:29;768.50;204.80
55365;DHT22;41245;45.384;20.390;2022-09-09T13:12:56;768.40;204.80
55365;DHT22;41245;45.384;20.390;2022-09-09T13:15:25;768.30;204.80
55365;DHT22;41245;45.384;20.390;2022-09-09T13:17:57;768.20;204.80
55365;DHT22;41245;45.384;20.390;2022-09-09T13:20:24;768.00;204.80
55365;DHT22;41245;45.384;20.390;2022-09-09T13:22:51;743.30;204.80
55365;DHT22;41245;45.384;20.390;2022-09-09T13:25:26;743.20;204.80
55365;DHT22;41245;45.384;20.390;2022-09-09T13:28:05;743.20;204.80
55365;DHT22;41245;45.384;20.390;2022-09-09T13:30:59;742.90;204.80
55365;DHT22;41245;45.384;20.390;2022-09-09T13:33:36;742.90;204.80
55365;DHT22;41245;45.384;20.390;2022-09-09T13:36:08;742.90;204.80
55365;DHT22;41245;45.384;20.390;2022-09-09T13:38:40;742.80;204.80
55365;DHT22;41245;45.384;20.390;2022-09-09T13:41:28;742.70;204.80
55365;DHT22;41245;45.384;20.390;2022-09-09T13:43:55;742.70;204.80
55365;DHT22;41245;45.384;20.390;2022-09-09T13:46:30;742.70;204.80
55365;DHT22;41245;45.384;20.390;2022-09-09T13:48:57;742.80;204.80
55365;DHT22;41245;45.384;20.390;2022-09-09T13:51:34;742.80;204.80
55365;DHT22;41245;45.384;20.390;2022-09-09T13:54:05;742.80;204.80
55365;DHT22;41245;45.384;20.390;2022-09-09T13:56:34;742.80;204.80
55365;DHT22;41245;45.384;20.390;2022-09-09T13:59:01;742.70;204.80
55365;DHT22;41245;45.384;20.390;2022-09-09T14:01:27;742.70;204.80
55365;DHT22;41245;45.384;20.390;2022-09-09T14:03:54;742.40;204.80
55365;DHT22;41245;45.384;20.390;2022-09-09T14:06:20;717.60;179.20
55365;DHT22;41245;45.384;20.390;2022-09-09T14:08:50;742.40;204.80
55365;DHT22;41245;45.384;20.390;2022-09-09T14:11:17;742.60;204.80
55365;DHT22;41245;45.384;20.390;2022-09-09T14:13:43;742.80;204.80
55365;DHT22;41245;45.384;20.390;2022-09-09T14:16:09;742.90;204.80
55365;DHT22;41245;45.384;20.390;2022-09-09T14:18:35;742.90;204.80
55365;DHT22;41245;45.384;20.390;2022-09-09T14:21:01;742.90;204.80
55365;DHT22;41245;45.384;20.390;2022-09-09T14:23:28;742.80;204.80
55365;DHT22;41245;45.384;20.390;2022-09-09T14:25:55;742.70;204.80
55365;DHT22;41245;45.384;20.390;2022-09-09T14:28:21;742.50;204.80
55365;DHT22;41245;45.384;20.390;2022-09-09T14:30:47;742.70;204.80
55365;DHT22;41245;45.384;20.390;2022-09-09T14:33:14;742.80;204.80
55365;DHT22;41245;45.384;20.390;2022-09-09T14:35:41;742.80;204.80
55365;DHT22;41245;45.384;20.390;2022-09-09T14:38:08;742.70;204.80
55365;DHT22;41245;45.384;20.390;2022-09-09T14:40:35;742.70;204.80
55365;DHT22;41245;45.384;20.390;2022-09-09T14:43:01;742.80;204.80
55365;DHT22;41245;45.384;20.390;2022-09-09T14:45:27;742.70;204.80
55365;DHT22;41245;45.384;20.390;2022-09-09T14:47:53;742.60;204.80
55365;DHT22;41245;45.384;20.390;2022-09-09T14:50:20;742.50;204.80
55365;DHT22;41245;45.384;20.390;2022-09-09T14:52:46;742.70;204.80
55365;DHT22;41245;45.384;20.390;2022-09-09T14:55:12;742.60;204.80
55365;DHT22;41245;45.384;20.390;2022-09-09T14:57:38;742.70;204.80
55365;DHT22;41245;45.384;20.390;2022-09-09T15:00:07;742.70;204.80
55365;DHT22;41245;45.384;20.390;2022-09-09T15:02:34;742.70;204.80
55365;DHT22;41245;45.384;20.390;2022-09-09T15:04:59;742.70;204.80
55365;DHT22;41245;45.384;20.390;2022-09-09T15:07:27;742.70;204.80
55365;DHT22;41245;45.384;20.390;2022-09-09T15:09:54;742.80;204.80
55365;DHT22;41245;45.384;20.390;2022-09-09T15:12:20;742.80;204.80
55365;DHT22;41245;45.384;20.390;2022-09-09T15:14:46;742.80;204.80
55365;DHT22;41245;45.384;20.390;2022-09-09T15:17:13;742.80;204.80
55365;DHT22;41245;45.384;20.390;2022-09-09T15:19:38;742.70;204.80
55365;DHT22;41245;45.384;20.390;2022-09-09T15:22:05;742.70;204.80
55365;DHT22;41245;45.384;20.390;2022-09-09T15:24:32;742.60;204.80
55365;DHT22;41245;45.384;20.390;2022-09-09T15:26:58;742.50;204.80
55365;DHT22;41245;45.384;20.390;2022-09-09T15:29:24;742.40;204.80
55365;DHT22;41245;45.384;20.390;2022-09-09T15:31:50;742.40;204.80
55365;DHT22;41245;45.384;20.390;2022-09-09T15:34:16;742.40;204.80
55365;DHT22;41245;45.384;20.390;2022-09-09T15:36:43;742.40;204.80
55365;DHT22;41245;45.384;20.390;2022-09-09T15:39:11;742.40;204.80
55365;DHT22;41245;45.384;20.390;2022-09-09T15:41:38;742.40;204.80
55365;DHT22;41245;45.384;20.390;2022-09-09T15:44:04;742.40;204.80
55365;DHT22;41245;45.384;20.390;2022-09-09T15:46:37;742.40;204.80
55365;DHT22;41245;45.384;20.390;2022-09-09T15:49:15;742.50;204.80
55365;DHT22;41245;45.384;20.390;2022-09-09T15:51:46;742.50;204.80
55365;DHT22;41245;45.384;20.390;2022-09-09T15:54:17;742.50;204.80
55365;DHT22;41245;45.384;20.390;2022-09-09T15:56:44;742.40;204.80
55365;DHT22;41245;45.384;20.390;2022-09-09T15:59:10;742.40;204.80
55365;DHT22;41245;45.384;20.390;2022-09-09T16:01:36;742.40;204.80
55365;DHT22;41245;45.384;20.390;2022-09-09T16:04:03;717.70;179.20
55365;DHT22;41245;45.384;20.390;2022-09-09T16:06:29;717.70;179.20
55365;DHT22;41245;45.384;20.390;2022-09-09T16:08:56;717.60;179.20
55365;DHT22;41245;45.384;20.390;2022-09-09T16:11:25;717.60;179.20
55365;DHT22;41245;45.384;20.390;2022-09-09T16:13:53;717.60;179.20
55365;DHT22;41245;45.384;20.390;2022-09-09T16:16:21;717.60;179.20
55365;DHT22;41245;45.384;20.390;2022-09-09T16:18:49;717.50;179.20
55365;DHT22;41245;45.384;20.390;2022-09-09T16:21:22;717.40;179.20
55365;DHT22;41245;45.384;20.390;2022-09-09T16:23:50;717.30;179.20
55365;DHT22;41245;45.384;20.390;2022-09-09T16:26:18;717.30;179.20
55365;DHT22;41245;45.384;20.390;2022-09-09T16:28:44;717.20;179.20
55365;DHT22;41245;45.384;20.390;2022-09-09T16:31:14;717.20;179.20
55365;DHT22;41245;45.384;20.390;2022-09-09T16:33:42;717.10;179.20
55365;DHT22;41245;45.384;20.390;2022-09-09T16:36:09;717.10;179.20
55365;DHT22;41245;45.384;20.390;2022-09-09T16:38:36;717.00;179.20
55365;DHT22;41245;45.384;20.390;2022-09-09T16:41:03;716.90;179.20
55365;DHT22;41245;45.384;20.390;2022-09-09T16:43:31;716.80;179.20
55365;DHT22;41245;45.384;20.390;2022-09-09T16:45:57;716.80;179.20
55365;DHT22;41245;45.384;20.390;2022-09-09T16:48:35;692.10;153.60
55365;DHT22;41245;45.384;20.390;2022-09-09T16:51:06;692.10;153.60
55365;DHT22;41245;45.384;20.390;2022-09-09T16:53:33;691.90;153.60
55365;DHT22;41245;45.384;20.390;2022-09-09T16:56:04;692.00;153.60
55365;DHT22;41245;45.384;20.390;2022-09-09T16:58:30;691.70;153.60
55365;DHT22;41245;45.384;20.390;2022-09-09T17:00:59;691.60;153.60
55365;DHT22;41245;45.384;20.390;2022-09-09T17:03:25;691.50;153.60
55365;DHT22;41245;45.384;20.390;2022-09-09T17:05:51;691.30;153.60
55365;DHT22;41245;45.384;20.390;2022-09-09T17:08:17;691.30;153.60
55365;DHT22;41245;45.384;20.390;2022-09-09T17:10:42;691.30;153.60
55365;DHT22;41245;45.384;20.390;2022-09-09T17:13:08;691.30;153.60
55365;DHT22;41245;45.384;20.390;2022-09-09T17:15:42;691.20;153.60